Aviation Digital Data Service (ADDS)

Output produced by METARs form (0703 UTC 31 January 2015)
found at http://aviationweather.gov/adds/metars/
 
KORH 310535Z 3106/0106 31022G37KT 5SM BLSN BKN060 
     FM311200 31018G28KT P6SM SCT250 
     FM312300 30015KT P6SM SKC